Time;durP1;ratioP1;P1;durP2;ratioP2;P2;SDS_P1;SDS_P2;PMS_P1;PMS_P2;Temp;Humidity;BMP_temperature;BMP_pressure;BME280_temperature;BME280_humidity;BME280_pressure;Samples;Min_cycle;Max_cycle;Signal;HPM_P1;HPM_P2
2021/12/02 00:01:12;;;;;;;3.25;0.80;;;4.80;99.90;;;;;;5023789;28;20513;-79
2021/12/02 00:03:38;;;;;;;7.35;0.40;;;4.80;99.90;;;;;;5015390;28;20025;-77
2021/12/02 00:06:10;;;;;;;1.85;0.10;;;4.80;99.90;;;;;;5025766;28;20033;-77
2021/12/02 00:08:36;;;;;;;4.18;0.20;;;4.80;99.90;;;;;;5029484;28;20037;-78
2021/12/02 00:11:02;;;;;;;4.75;0.20;;;4.80;99.90;;;;;;5032101;28;20475;-78
2021/12/02 00:13:29;;;;;;;4.35;0.17;;;4.80;99.90;;;;;;5028970;28;20037;-78
2021/12/02 00:16:05;;;;;;;4.75;0.20;;;4.80;99.90;;;;;;5028863;28;20037;-78
2021/12/02 00:21:20;;;;;;;5.57;0.20;;;4.80;99.90;;;;;;5022759;28;20414;-78
2021/12/02 00:23:55;;;;;;;2.42;0.17;;;4.80;99.90;;;;;;5013025;28;20022;-76
2021/12/02 00:26:21;;;;;;;3.97;0.20;;;4.80;99.90;;;;;;5022237;28;20052;-76
2021/12/02 00:28:52;;;;;;;1.75;0.20;;;4.70;99.90;;;;;;5023794;28;20018;-76
2021/12/02 00:31:20;;;;;;;3.40;0.20;;;4.60;99.90;;;;;;5023220;28;20037;-77
2021/12/02 00:33:52;;;;;;;7.50;0.38;;;4.60;99.90;;;;;;5032593;28;20054;-78
2021/12/02 00:36:21;;;;;;;5.07;0.20;;;4.60;99.90;;;;;;5022165;28;20057;-79
2021/12/02 00:38:47;;;;;;;2.08;0.25;;;4.50;99.90;;;;;;5017355;28;20065;-76
2021/12/02 00:41:18;;;;;;;2.80;0.50;;;4.50;99.90;;;;;;5020377;28;20073;-77
2021/12/02 00:43:46;;;;;;;4.20;0.60;;;4.40;99.90;;;;;;5020221;28;20023;-77
2021/12/02 00:46:15;;;;;;;3.03;0.20;;;4.40;99.90;;;;;;5020114;28;20045;-77
2021/12/02 00:48:42;;;;;;;3.33;0.22;;;4.40;99.90;;;;;;5022223;28;20707;-76
2021/12/02 00:51:08;;;;;;;8.00;0.60;;;4.40;99.90;;;;;;5019414;28;20037;-76
2021/12/02 00:53:36;;;;;;;5.88;0.30;;;4.40;99.90;;;;;;5012292;28;20037;-79
2021/12/02 00:56:04;;;;;;;3.70;0.30;;;4.50;99.90;;;;;;5014974;28;20033;-80
2021/12/02 00:58:32;;;;;;;5.32;0.20;;;4.50;99.90;;;;;;5015750;28;20471;-80
2021/12/02 01:00:58;;;;;;;4.15;0.20;;;4.50;99.90;;;;;;5016122;28;20400;-80
2021/12/02 01:03:26;;;;;;;4.13;0.28;;;4.40;99.90;;;;;;5019252;28;20044;-81
2021/12/02 01:05:52;;;;;;;7.60;0.98;;;4.30;99.90;;;;;;5025371;28;20033;-79
2021/12/02 01:08:19;;;;;;;2.95;0.47;;;4.20;99.90;;;;;;5024588;28;20013;-77
2021/12/02 01:10:45;;;;;;;3.53;0.20;;;4.10;99.90;;;;;;5045552;28;20033;-79
2021/12/02 01:13:11;;;;;;;3.25;0.20;;;4.00;99.90;;;;;;5031960;28;20041;-78
2021/12/02 01:15:37;;;;;;;4.22;0.30;;;4.00;99.90;;;;;;5029325;28;20034;-78
2021/12/02 01:18:03;;;;;;;3.50;0.20;;;3.90;99.90;;;;;;5032153;28;20102;-80
2021/12/02 01:20:30;;;;;;;2.10;0.10;;;3.90;99.90;;;;;;5019350;28;20041;-80
2021/12/02 01:22:59;;;;;;;6.20;0.30;;;3.80;99.90;;;;;;5014924;28;20124;-80
2021/12/02 01:25:27;;;;;;;1.52;0.10;;;3.80;99.90;;;;;;5014988;28;20033;-78
2021/12/02 01:27:55;;;;;;;3.10;0.20;;;3.80;99.90;;;;;;5015398;28;20036;-78
2021/12/02 01:30:20;;;;;;;4.65;0.20;;;3.80;99.90;;;;;;5027739;28;20498;-78
2021/12/02 01:32:48;;;;;;;3.97;0.25;;;3.70;99.90;;;;;;5020343;28;20045;-78
2021/12/02 01:35:18;;;;;;;5.57;0.45;;;3.70;99.90;;;;;;5018462;28;20104;-80
2021/12/02 01:37:45;;;;;;;5.80;0.32;;;3.70;99.90;;;;;;5023158;28;20471;-80
2021/12/02 01:40:11;;;;;;;2.97;0.20;;;3.70;99.90;;;;;;5019232;28;20108;-80
2021/12/02 01:42:39;;;;;;;5.90;0.20;;;3.60;99.90;;;;;;5019987;28;20109;-80
2021/12/02 01:45:05;;;;;;;8.93;0.40;;;3.60;99.90;;;;;;5024924;28;20095;-78
2021/12/02 01:47:33;;;;;;;3.72;0.20;;;3.60;99.90;;;;;;5019845;28;20022;-78
2021/12/02 01:50:02;;;;;;;4.40;0.20;;;3.70;99.90;;;;;;5028128;28;20139;-78
2021/12/02 01:52:30;;;;;;;2.92;0.20;;;3.70;99.90;;;;;;5019662;28;20538;-78
2021/12/02 01:55:16;;;;;;;3.80;0.32;;;3.80;99.90;;;;;;5015667;28;20025;-80
2021/12/02 01:58:05;;;;;;;6.47;0.73;;;3.90;99.90;;;;;;5015803;28;20028;-80
2021/12/02 02:00:41;;;;;;;4.38;0.13;;;3.80;99.90;;;;;;5018542;28;20046;-78
2021/12/02 02:03:07;;;;;;;4.50;0.50;;;3.90;99.90;;;;;;5025515;28;20121;-79
2021/12/02 02:05:32;;;;;;;3.22;0.73;;;3.80;99.90;;;;;;5014813;28;20018;-78
2021/12/02 02:08:05;;;;;;;4.57;0.30;;;3.80;99.90;;;;;;5015213;28;20100;-78
2021/12/02 02:10:34;;;;;;;4.53;0.20;;;3.70;99.90;;;;;;5015138;28;20779;-77
2021/12/02 02:13:04;;;;;;;5.68;0.30;;;3.70;99.90;;;;;;5022622;28;20072;-79
2021/12/02 02:15:30;;;;;;;3.58;0.20;;;3.60;99.90;;;;;;5028071;28;20033;-79
2021/12/02 02:18:06;;;;;;;5.25;0.63;;;3.50;99.90;;;;;;5021006;28;20054;-77
2021/12/02 02:20:50;;;;;;;4.95;0.45;;;3.50;99.90;;;;;;5013277;28;20451;-79
2021/12/02 02:23:16;;;;;;;4.20;0.20;;;3.50;99.90;;;;;;5020680;28;20468;-77
2021/12/02 02:25:44;;;;;;;1.73;0.30;;;3.50;99.90;;;;;;5024315;28;20034;-79
2021/12/02 02:28:09;;;;;;;6.07;0.40;;;3.60;99.90;;;;;;5015196;28;20117;-79
2021/12/02 02:30:35;;;;;;;3.00;0.20;;;3.50;99.90;;;;;;5021343;28;20157;-79
2021/12/02 02:33:00;;;;;;;7.65;0.30;;;3.60;99.90;;;;;;5024979;28;20491;-79
2021/12/02 02:35:26;;;;;;;5.53;0.32;;;3.60;99.90;;;;;;5024031;28;20096;-79
2021/12/02 02:37:52;;;;;;;2.90;0.25;;;3.60;99.90;;;;;;5030038;28;20075;-79
2021/12/02 02:40:18;;;;;;;4.93;0.20;;;3.70;99.90;;;;;;5030707;28;20036;-77
2021/12/02 02:42:48;;;;;;;5.10;0.30;;;3.80;99.90;;;;;;5024854;28;20014;-79
2021/12/02 02:45:13;;;;;;;4.38;0.40;;;3.80;99.90;;;;;;5024535;28;20435;-79
2021/12/02 02:47:40;;;;;;;11.52;0.50;;;3.80;99.90;;;;;;5028627;28;20028;-79
2021/12/02 02:50:06;;;;;;;8.63;1.13;;;3.90;99.90;;;;;;5017872;28;20451;-80
2021/12/02 02:52:32;;;;;;;9.15;0.40;;;3.90;99.90;;;;;;5015713;28;20426;-79
2021/12/02 02:54:58;;;;;;;4.32;0.40;;;3.90;99.90;;;;;;5022788;28;20575;-77
2021/12/02 02:57:28;;;;;;;3.90;0.40;;;4.00;99.90;;;;;;5019305;28;20057;-77
2021/12/02 03:02:28;;;;;;;5.57;0.30;;;4.00;99.90;;;;;;5019073;28;20041;-78
2021/12/02 03:05:16;;;;;;;5.10;0.38;;;4.00;99.90;;;;;;5028346;28;20029;-78
2021/12/02 03:07:46;;;;;;;5.57;0.45;;;3.90;99.90;;;;;;5024590;28;20071;-79
2021/12/02 03:12:53;;;;;;;5.35;0.30;;;3.90;99.90;;;;;;5014935;28;20022;-79
2021/12/02 03:17:46;;;;;;;1.85;0.40;;;3.90;99.90;;;;;;5013907;28;20041;-79
2021/12/02 03:20:12;;;;;;;4.35;0.30;;;3.90;99.90;;;;;;5022806;28;20416;-79
2021/12/02 03:22:38;;;;;;;3.58;1.23;;;3.90;99.90;;;;;;5025297;28;20070;-79
2021/12/02 03:25:05;;;;;;;1.65;0.20;;;3.80;99.90;;;;;;5021860;28;20108;-79
2021/12/02 03:27:30;;;;;;;5.65;0.28;;;3.80;99.90;;;;;;5024359;28;20021;-79
2021/12/02 03:29:56;;;;;;;4.38;0.20;;;3.80;99.90;;;;;;5029198;28;20093;-79
2021/12/02 03:32:21;;;;;;;3.13;0.20;;;3.70;99.90;;;;;;5015749;28;20120;-80
2021/12/02 03:34:47;;;;;;;6.00;0.50;;;3.70;99.90;;;;;;5013511;28;20045;-79
2021/12/02 03:37:13;;;;;;;3.35;0.30;;;3.70;99.90;;;;;;5013896;28;20038;-79
2021/12/02 03:39:39;;;;;;;3.30;0.28;;;3.70;99.90;;;;;;5024475;28;20356;-79
2021/12/02 03:42:05;;;;;;;6.15;0.22;;;3.60;99.90;;;;;;5024615;28;20468;-79
2021/12/02 03:44:31;;;;;;;3.00;0.40;;;3.50;99.90;;;;;;5022850;28;20679;-79
2021/12/02 03:46:57;;;;;;;2.00;0.20;;;3.50;99.90;;;;;;5030664;28;20041;-79
2021/12/02 03:49:23;;;;;;;2.92;0.30;;;3.40;99.90;;;;;;5025999;28;20053;-79
2021/12/02 03:51:49;;;;;;;4.50;0.40;;;3.40;99.90;;;;;;5020371;28;20052;-78
2021/12/02 03:54:15;;;;;;;3.80;0.57;;;3.40;99.90;;;;;;5024190;28;20387;-79
2021/12/02 03:56:40;;;;;;;6.30;0.30;;;3.40;99.90;;;;;;5025778;28;20026;-79
2021/12/02 03:59:06;;;;;;;3.28;0.30;;;3.40;99.90;;;;;;5019673;28;20035;-79
2021/12/02 04:01:32;;;;;;;3.95;0.30;;;3.40;99.90;;;;;;5011979;28;20036;-79
2021/12/02 04:03:57;;;;;;;2.22;0.40;;;3.50;99.90;;;;;;5023684;28;20452;-79
2021/12/02 04:06:23;;;;;;;8.45;0.52;;;3.50;99.90;;;;;;5026953;28;20479;-79
2021/12/02 04:09:07;;;;;;;5.53;0.43;;;3.50;99.90;;;;;;5022893;28;20042;-79
2021/12/02 04:11:50;;;;;;;4.32;0.40;;;3.50;99.90;;;;;;5013385;28;20057;-79
2021/12/02 04:16:57;;;;;;;4.60;0.28;;;3.40;99.90;;;;;;5017156;28;19913;-79
2021/12/02 04:19:23;;;;;;;4.53;0.20;;;3.40;99.90;;;;;;5026407;28;20025;-79
2021/12/02 04:21:50;;;;;;;4.22;0.30;;;3.50;99.90;;;;;;5029721;28;20395;-78
2021/12/02 04:24:15;;;;;;;3.22;0.20;;;3.50;99.90;;;;;;5016852;28;20041;-79
2021/12/02 04:26:43;;;;;;;3.90;0.30;;;3.50;99.90;;;;;;5030026;28;20116;-79
2021/12/02 04:29:09;;;;;;;9.93;1.10;;;3.60;99.90;;;;;;5014359;28;20022;-79
2021/12/02 04:31:34;;;;;;;3.78;0.40;;;3.60;99.90;;;;;;5024714;28;20472;-79
2021/12/02 04:34:00;;;;;;;3.00;0.40;;;3.60;99.90;;;;;;5031110;28;20071;-79
2021/12/02 04:36:25;;;;;;;10.38;1.05;;;3.60;99.90;;;;;;5031450;28;20029;-79
2021/12/02 04:38:51;;;;;;;3.70;0.30;;;3.60;99.90;;;;;;5027845;28;20108;-79
2021/12/02 04:41:17;;;;;;;5.22;0.45;;;3.60;99.90;;;;;;5031956;28;20030;-79
2021/12/02 04:43:43;;;;;;;7.35;0.40;;;3.60;99.90;;;;;;5016647;28;20032;-79
2021/12/02 04:46:09;;;;;;;3.70;0.55;;;3.60;99.90;;;;;;5019688;28;20050;-79
2021/12/02 04:48:34;;;;;;;7.72;0.60;;;3.60;99.90;;;;;;5020412;28;20044;-79
2021/12/02 04:51:00;;;;;;;7.25;1.25;;;3.60;99.90;;;;;;5015805;28;20056;-79
2021/12/02 04:53:26;;;;;;;6.72;0.60;;;3.50;99.90;;;;;;5035873;28;20021;-79
2021/12/02 04:55:51;;;;;;;4.07;0.43;;;3.50;99.90;;;;;;5019061;28;20025;-79
2021/12/02 04:58:17;;;;;;;6.95;0.93;;;3.50;99.90;;;;;;5023046;28;20532;-78
2021/12/02 05:00:43;;;;;;;3.20;0.30;;;3.50;99.90;;;;;;5019751;28;20038;-79
2021/12/02 05:03:08;;;;;;;5.57;0.45;;;3.50;99.90;;;;;;5022493;28;20049;-79
2021/12/02 05:05:34;;;;;;;3.83;0.30;;;3.50;99.90;;;;;;5019281;28;20044;-79
2021/12/02 05:08:02;;;;;;;4.25;0.20;;;3.50;99.90;;;;;;5017616;28;20540;-79
2021/12/02 05:10:28;;;;;;;1.83;0.10;;;3.50;99.90;;;;;;5027955;28;20095;-78
2021/12/02 05:12:54;;;;;;;4.30;0.10;;;3.50;99.90;;;;;;5030104;28;20037;-79
2021/12/02 05:15:19;;;;;;;3.17;0.30;;;3.50;99.90;;;;;;5019574;28;20034;-78
2021/12/02 05:17:45;;;;;;;4.90;0.40;;;3.40;99.90;;;;;;5025799;28;20034;-78
2021/12/02 05:20:10;;;;;;;6.90;0.63;;;3.40;99.90;;;;;;5024025;28;20068;-78
2021/12/02 05:22:36;;;;;;;6.55;0.35;;;3.30;99.90;;;;;;5030972;28;20025;-78
2021/12/02 05:25:03;;;;;;;7.40;0.30;;;3.30;99.90;;;;;;5038025;28;20025;-78
2021/12/02 05:27:28;;;;;;;3.83;0.45;;;3.30;99.90;;;;;;5020354;28;20378;-78
2021/12/02 05:29:55;;;;;;;4.32;0.30;;;3.30;99.90;;;;;;5024746;28;20629;-78
2021/12/02 05:32:21;;;;;;;6.80;0.35;;;3.30;99.90;;;;;;5022645;28;20034;-80
2021/12/02 05:34:48;;;;;;;5.95;0.40;;;3.30;99.90;;;;;;5028237;28;20392;-89
2021/12/02 05:37:14;;;;;;;2.13;0.30;;;3.30;99.90;;;;;;5029000;28;20053;-84
2021/12/02 05:39:40;;;;;;;0.85;0.13;;;3.10;99.90;;;;;;5016059;28;20064;-83
2021/12/02 05:42:06;;;;;;;2.35;0.20;;;2.90;99.90;;;;;;5019180;28;20036;-81
2021/12/02 05:44:32;;;;;;;1.55;0.20;;;2.70;99.90;;;;;;5028921;28;20029;-81
2021/12/02 05:46:57;;;;;;;1.08;0.20;;;2.60;99.90;;;;;;5021694;28;20045;-80
2021/12/02 05:49:23;;;;;;;3.58;0.28;;;2.50;99.90;;;;;;5014476;28;20034;-80
2021/12/02 05:51:48;;;;;;;4.53;0.50;;;2.50;99.90;;;;;;5014064;28;20080;-80
2021/12/02 05:54:14;;;;;;;3.75;0.30;;;2.40;99.90;;;;;;5014874;28;20065;-80
2021/12/02 05:56:40;;;;;;;4.05;0.20;;;2.40;99.90;;;;;;5026537;28;20054;-82
2021/12/02 05:59:06;;;;;;;2.67;0.20;;;2.40;99.90;;;;;;5018267;28;20427;-83
2021/12/02 06:01:32;;;;;;;3.90;0.20;;;2.40;99.90;;;;;;5023469;28;20042;-82
2021/12/02 06:03:58;;;;;;;5.55;0.20;;;2.40;99.90;;;;;;5025581;28;20025;-82
2021/12/02 06:06:26;;;;;;;2.95;0.22;;;2.40;99.90;;;;;;5029448;28;20032;-82
2021/12/02 06:08:51;;;;;;;2.25;0.20;;;2.50;99.90;;;;;;5027774;28;20022;-83
2021/12/02 06:11:17;;;;;;;3.47;0.20;;;2.50;99.90;;;;;;5017248;28;20080;-82
2021/12/02 06:13:45;;;;;;;2.80;0.30;;;2.50;99.90;;;;;;5027818;28;20029;-82
2021/12/02 06:16:11;;;;;;;1.88;0.20;;;2.50;99.90;;;;;;5034436;28;20073;-82
2021/12/02 06:18:36;;;;;;;2.33;0.50;;;2.60;99.90;;;;;;5030194;28;20108;-82
2021/12/02 06:21:02;;;;;;;3.75;0.30;;;2.60;99.90;;;;;;5019654;28;20075;-87
2021/12/02 06:23:27;;;;;;;6.15;0.40;;;2.60;99.90;;;;;;5025660;28;20025;-89
2021/12/02 06:25:53;;;;;;;3.80;0.30;;;2.60;99.90;;;;;;5020597;28;20502;-86
2021/12/02 06:28:19;;;;;;;2.75;0.40;;;2.50;99.90;;;;;;5019216;28;20026;-83
2021/12/02 06:30:45;;;;;;;2.95;0.70;;;2.30;99.90;;;;;;5019863;28;20033;-83
2021/12/02 06:33:11;;;;;;;3.97;0.50;;;2.20;99.90;;;;;;5022911;28;20383;-84
2021/12/02 06:35:37;;;;;;;6.40;0.95;;;2.10;99.90;;;;;;5024272;28;20040;-84
2021/12/02 06:38:03;;;;;;;4.32;0.50;;;1.90;99.90;;;;;;5028270;28;20166;-82
2021/12/02 06:40:29;;;;;;;2.10;0.52;;;1.80;99.90;;;;;;5017667;28;20032;-82
2021/12/02 06:42:55;;;;;;;3.83;0.60;;;1.80;99.90;;;;;;5015454;28;20072;-83
2021/12/02 06:45:21;;;;;;;3.85;0.77;;;1.70;99.90;;;;;;5024679;28;20041;-83
2021/12/02 06:47:47;;;;;;;5.20;1.17;;;1.70;99.90;;;;;;5020450;28;20029;-84
2021/12/02 06:50:17;;;;;;;5.55;1.73;;;1.60;99.90;;;;;;5018304;28;20511;-83
2021/12/02 06:52:45;;;;;;;7.85;2.05;;;1.60;99.90;;;;;;5018414;28;20150;-84
2021/12/02 06:55:11;;;;;;;8.40;2.60;;;1.60;99.90;;;;;;5023659;28;20049;-85
2021/12/02 06:57:38;;;;;;;8.60;2.40;;;1.50;99.90;;;;;;5032706;28;20018;-83
2021/12/02 07:00:10;;;;;;;7.88;2.05;;;1.50;99.90;;;;;;5035052;28;20471;-83
2021/12/02 07:02:37;;;;;;;;;;;1.50;99.90;;;;;;5030980;28;20595;-84
2021/12/02 07:05:04;;;;;;;3.90;1.67;;;1.50;99.90;;;;;;5014387;28;19905;-85
2021/12/02 07:07:37;;;;;;;7.97;1.38;;;1.50;99.90;;;;;;5013393;28;20388;-84
2021/12/02 07:10:12;;;;;;;7.45;1.52;;;1.50;99.90;;;;;;5019532;28;20029;-83
2021/12/02 07:12:39;;;;;;;7.18;1.75;;;1.50;99.90;;;;;;5023014;28;20104;-83
2021/12/02 07:15:10;;;;;;;4.43;1.63;;;1.40;99.90;;;;;;5019698;28;20022;-82
2021/12/02 07:17:39;;;;;;;6.03;1.88;;;1.40;99.90;;;;;;5020879;28;20033;-81
2021/12/02 07:20:05;;;;;;;5.50;1.65;;;1.40;99.90;;;;;;5025461;28;20148;-81
2021/12/02 07:22:30;;;;;;;4.30;1.20;;;1.40;99.90;;;;;;5015074;28;20025;-81
2021/12/02 07:24:56;;;;;;;3.65;1.20;;;1.40;99.90;;;;;;5032481;28;20029;-80
2021/12/02 07:27:21;;;;;;;9.75;1.48;;;1.40;99.90;;;;;;5024063;28;20419;-81
2021/12/02 07:29:47;;;;;;;3.60;1.45;;;1.50;99.90;;;;;;5016684;28;20033;-82
2021/12/02 07:32:14;;;;;;;4.07;1.60;;;1.50;99.90;;;;;;5019795;28;20137;-82
2021/12/02 07:34:44;;;;;;;3.50;1.20;;;1.60;99.90;;;;;;5030263;28;20029;-81
2021/12/02 07:37:13;;;;;;;6.47;1.40;;;1.60;99.90;;;;;;5027903;28;20124;-81
2021/12/02 07:39:39;;;;;;;8.55;1.48;;;1.60;99.90;;;;;;5026464;28;20033;-81
2021/12/02 07:42:05;;;;;;;10.38;1.88;;;1.70;99.90;;;;;;5017713;28;20376;-81
2021/12/02 07:44:35;;;;;;;6.00;1.30;;;1.70;99.90;;;;;;5017280;28;20026;-81
2021/12/02 07:47:02;;;;;;;6.70;1.63;;;1.70;99.90;;;;;;5023906;28;20045;-81
2021/12/02 07:49:28;;;;;;;8.60;1.63;;;1.80;99.90;;;;;;5023290;28;20033;-81
2021/12/02 07:51:59;;;;;;;8.35;1.63;;;1.80;99.90;;;;;;5020865;28;20084;-83
2021/12/02 07:54:26;;;;;;;8.20;1.60;;;1.90;99.90;;;;;;5029619;28;20526;-82
2021/12/02 07:56:53;;;;;;;9.75;2.17;;;1.90;99.90;;;;;;5028564;28;20026;-82
2021/12/02 07:59:19;;;;;;;7.25;1.50;;;1.90;99.90;;;;;;5022567;28;20034;-81
2021/12/02 08:01:46;;;;;;;11.38;2.22;;;1.90;99.90;;;;;;5020645;28;20034;-82
2021/12/02 08:04:11;;;;;;;8.63;1.63;;;2.00;99.90;;;;;;5018077;28;20080;-81
2021/12/02 08:06:37;;;;;;;8.15;1.55;;;2.10;99.90;;;;;;5013966;28;20030;-83
2021/12/02 08:09:05;;;;;;;7.65;2.00;;;2.10;99.90;;;;;;5014853;28;20018;-83
2021/12/02 08:11:31;;;;;;;6.45;1.55;;;2.20;99.90;;;;;;5015121;28;20049;-83
2021/12/02 08:13:57;;;;;;;9.05;1.75;;;2.30;99.90;;;;;;5028737;28;20101;-82
2021/12/02 08:16:23;;;;;;;7.68;1.42;;;2.30;99.90;;;;;;5030655;28;20033;-81
2021/12/02 08:18:49;;;;;;;7.45;1.50;;;2.40;99.90;;;;;;5017649;28;20052;-78
2021/12/02 08:21:14;;;;;;;7.53;1.20;;;2.50;99.90;;;;;;5027758;28;20496;-79
2021/12/02 08:23:40;;;;;;;6.57;0.57;;;2.50;99.90;;;;;;5029385;28;20075;-80
2021/12/02 08:26:06;;;;;;;6.90;0.57;;;2.50;99.90;;;;;;5033186;28;20562;-83
2021/12/02 08:28:31;;;;;;;3.60;1.10;;;2.40;99.90;;;;;;5027612;28;20106;-82
2021/12/02 08:30:58;;;;;;;6.70;0.43;;;2.40;99.90;;;;;;5012750;28;20068;-82
2021/12/02 08:33:24;;;;;;;3.33;0.40;;;2.30;99.90;;;;;;5015965;28;20022;-83
2021/12/02 08:35:49;;;;;;;1.30;0.20;;;2.30;99.90;;;;;;5027015;28;20472;-84
2021/12/02 08:38:17;;;;;;;5.13;0.25;;;2.20;99.90;;;;;;5015114;28;20068;-83
2021/12/02 08:40:47;;;;;;;1.60;0.40;;;2.20;99.90;;;;;;5012818;28;20026;-83
2021/12/02 08:43:15;;;;;;;3.85;0.30;;;2.20;99.90;;;;;;5029824;28;20524;-83
2021/12/02 08:45:44;;;;;;;4.75;0.30;;;2.20;99.90;;;;;;5028636;28;20041;-82
2021/12/02 08:48:10;;;;;;;6.18;0.73;;;2.20;99.90;;;;;;5016491;28;20025;-83
2021/12/02 08:50:37;;;;;;;4.95;1.42;;;2.30;99.90;;;;;;5032812;28;20106;-81
2021/12/02 08:53:04;;;;;;;5.88;1.02;;;2.30;99.90;;;;;;5015213;28;20033;-79
2021/12/02 08:55:30;;;;;;;6.13;0.98;;;2.30;99.90;;;;;;5032464;28;20033;-81
2021/12/02 08:57:58;;;;;;;7.63;1.40;;;2.40;99.90;;;;;;5030391;28;20029;-81
2021/12/02 09:00:32;;;;;;;8.13;1.17;;;2.50;99.90;;;;;;5018956;28;20030;-81
2021/12/02 09:02:58;;;;;;;3.63;0.85;;;2.60;99.90;;;;;;5028126;28;20067;-81
2021/12/02 09:05:23;;;;;;;1.83;0.40;;;2.70;99.90;;;;;;5027764;28;20108;-81
2021/12/02 09:07:49;;;;;;;4.25;0.38;;;2.70;99.90;;;;;;5011700;28;20104;-81
2021/12/02 09:10:15;;;;;;;6.32;0.68;;;2.60;99.90;;;;;;5010178;28;20508;-82
2021/12/02 09:12:42;;;;;;;1.42;0.30;;;2.50;99.90;;;;;;5018240;28;20036;-83
2021/12/02 09:15:08;;;;;;;1.23;0.40;;;2.40;99.90;;;;;;5020716;28;20021;-82
2021/12/02 09:17:35;;;;;;;4.45;0.50;;;2.40;99.90;;;;;;5018626;28;20109;-82
2021/12/02 09:20:02;;;;;;;6.20;1.08;;;2.30;99.90;;;;;;5019120;28;20030;-82
2021/12/02 09:22:28;;;;;;;12.15;3.17;;;2.30;99.90;;;;;;5024002;28;20034;-81
2021/12/02 09:24:54;;;;;;;8.32;2.90;;;2.30;99.90;;;;;;5033442;28;20411;-81
2021/12/02 09:27:19;;;;;;;7.88;1.50;;;2.30;99.90;;;;;;5022583;28;20507;-81
2021/12/02 09:29:45;;;;;;;7.55;1.40;;;2.30;99.90;;;;;;5024058;28;20480;-81
2021/12/02 09:32:11;;;;;;;7.88;1.15;;;2.40;99.90;;;;;;5021903;28;20041;-80
2021/12/02 09:34:37;;;;;;;3.47;1.25;;;2.50;99.90;;;;;;5016997;28;20029;-80
2021/12/02 09:37:03;;;;;;;7.50;0.95;;;2.60;99.90;;;;;;5025826;28;20025;-80
2021/12/02 09:39:31;;;;;;;5.07;0.90;;;2.70;99.90;;;;;;5023360;28;20029;-80
2021/12/02 09:41:57;;;;;;;6.80;0.82;;;2.80;99.90;;;;;;5032710;28;20435;-80
2021/12/02 09:44:23;;;;;;;6.05;0.63;;;2.80;99.90;;;;;;5027278;28;20116;-80
2021/12/02 09:46:48;;;;;;;3.45;0.57;;;2.90;99.90;;;;;;5031177;28;20044;-79
2021/12/02 09:49:16;;;;;;;4.25;0.50;;;3.10;99.90;;;;;;5034523;28;20028;-79
2021/12/02 09:54:25;;;;;;;7.47;1.20;;;3.20;99.90;;;;;;5021093;28;20033;-79
2021/12/02 09:56:53;;;;;;;5.47;1.13;;;3.40;99.90;;;;;;5033832;28;20172;-79
2021/12/02 10:02:00;;;;;;;6.40;1.30;;;3.60;99.90;;;;;;5036516;28;20444;-78
2021/12/02 10:04:27;;;;;;;7.93;1.20;;;3.50;99.90;;;;;;5014983;28;20026;-78
2021/12/02 10:07:10;;;;;;;6.60;1.52;;;3.50;99.90;;;;;;5018789;28;20640;-79
2021/12/02 10:09:40;;;;;;;6.68;1.40;;;3.40;99.90;;;;;;5033324;28;20491;-79
2021/12/02 10:12:15;;;;;;;5.35;1.70;;;3.40;99.90;;;;;;5020933;28;20076;-78
2021/12/02 10:14:48;;;;;;;9.20;1.70;;;3.40;99.90;;;;;;5034244;28;20024;-78
2021/12/02 10:23:21;;;;;;;9.57;1.52;;;3.30;99.90;;;;;;5021193;28;20073;-78
2021/12/02 10:25:58;;;;;;;7.38;1.05;;;3.30;99.90;;;;;;5018353;28;20480;-78
2021/12/02 10:28:25;;;;;;;5.82;0.88;;;3.40;99.90;;;;;;5014599;28;20033;-77
2021/12/02 10:31:00;;;;;;;3.72;0.90;;;3.40;99.90;;;;;;5029887;28;20030;-77
2021/12/02 10:33:46;;;;;;;7.10;0.88;;;3.50;99.90;;;;;;5015615;28;20088;-77
2021/12/02 10:36:30;;;;;;;3.13;0.77;;;3.50;99.90;;;;;;5018656;28;20021;-78
2021/12/02 10:39:00;;;;;;;6.80;0.60;;;3.60;99.90;;;;;;5019086;28;20113;-77
2021/12/02 10:41:28;;;;;;;3.85;0.70;;;3.60;99.90;;;;;;5013465;28;20172;-77
2021/12/02 10:44:23;;;;;;;3.03;0.57;;;3.70;99.90;;;;;;5014392;28;20026;-77
2021/12/02 10:46:52;;;;;;;4.68;0.68;;;3.80;99.90;;;;;;5021818;28;20435;-77
2021/12/02 10:49:19;;;;;;;8.98;0.80;;;4.00;99.90;;;;;;5014170;28;20026;-77
2021/12/02 10:51:46;;;;;;;4.30;0.60;;;4.20;99.90;;;;;;5032478;28;20049;-77
2021/12/02 10:54:25;;;;;;;4.50;0.80;;;4.30;99.90;;;;;;5017603;28;20499;-76
2021/12/02 10:56:57;;;;;;;5.82;0.60;;;4.40;99.90;;;;;;5032083;28;20077;-76
2021/12/02 10:59:24;;;;;;;3.17;0.52;;;4.30;99.90;;;;;;5034409;28;20033;-76
2021/12/02 11:01:55;;;;;;;7.88;0.70;;;4.30;99.90;;;;;;5030894;28;20040;-77
2021/12/02 11:04:21;;;;;;;2.30;0.70;;;4.20;99.90;;;;;;5032554;28;20032;-77
2021/12/02 11:06:50;;;;;;;2.63;0.52;;;4.20;99.90;;;;;;5027574;28;20038;-77
2021/12/02 11:09:27;;;;;;;2.45;0.32;;;4.20;99.90;;;;;;5012663;28;20036;-77
2021/12/02 11:12:08;;;;;;;3.35;0.40;;;4.20;99.90;;;;;;5015480;28;20040;-77
2021/12/02 11:14:51;;;;;;;6.13;0.70;;;4.30;99.90;;;;;;5012798;28;20127;-77
2021/12/02 11:17:17;;;;;;;3.95;0.60;;;4.40;99.90;;;;;;5026153;28;20037;-78
2021/12/02 11:19:44;;;;;;;2.15;0.43;;;4.50;99.90;;;;;;5019776;28;20030;-78
2021/12/02 11:22:16;;;;;;;2.15;0.40;;;4.70;99.90;;;;;;5020288;28;20037;-78
2021/12/02 11:24:43;;;;;;;1.02;0.20;;;4.90;99.90;;;;;;5021457;28;20112;-78
2021/12/02 11:27:28;;;;;;;3.88;0.32;;;4.90;99.90;;;;;;5014706;28;20026;-79
2021/12/02 11:29:57;;;;;;;1.70;0.40;;;4.90;99.90;;;;;;5034191;28;20033;-79
2021/12/02 11:32:25;;;;;;;2.47;0.40;;;4.90;99.90;;;;;;5036672;28;20048;-79
2021/12/02 11:35:15;;;;;;;3.30;0.30;;;4.90;99.90;;;;;;5037253;28;20029;-79
2021/12/02 11:37:50;;;;;;;4.20;0.40;;;4.90;99.90;;;;;;5022926;28;20432;-78
2021/12/02 11:40:19;;;;;;;2.88;0.40;;;4.70;99.90;;;;;;5012013;28;20025;-80
2021/12/02 11:42:47;;;;;;;3.60;0.20;;;4.70;99.90;;;;;;5030045;28;20020;-78
2021/12/02 11:45:15;;;;;;;1.85;0.30;;;4.60;99.90;;;;;;5053535;28;20499;-80
2021/12/02 11:47:41;;;;;;;2.45;0.25;;;4.50;99.90;;;;;;5053408;28;20024;-79
2021/12/02 11:50:09;;;;;;;0.75;0.20;;;4.50;99.90;;;;;;5042772;28;20025;-79
2021/12/02 11:52:38;;;;;;;1.95;0.10;;;4.50;99.90;;;;;;5045354;28;20036;-79
2021/12/02 11:55:08;;;;;;;3.70;0.10;;;4.40;99.90;;;;;;5034432;28;20017;-78
2021/12/02 11:57:34;;;;;;;3.78;0.20;;;4.40;99.90;;;;;;5033810;28;20447;-79
2021/12/02 12:00:04;;;;;;;0.30;0.10;;;4.40;99.90;;;;;;5019068;28;20034;-80
2021/12/02 12:02:30;;;;;;;0.47;0.10;;;4.40;99.90;;;;;;5012335;28;20061;-78
2021/12/02 12:04:59;;;;;;;0.85;0.10;;;4.30;99.90;;;;;;5012327;28;20036;-79
2021/12/02 12:07:41;;;;;;;0.47;0.10;;;4.30;99.90;;;;;;5012545;28;20449;-79
2021/12/02 12:10:17;;;;;;;1.90;0.10;;;4.30;99.90;;;;;;5012975;28;20527;-78
2021/12/02 12:12:44;;;;;;;0.60;0.10;;;4.20;99.90;;;;;;5013338;28;20058;-79
2021/12/02 12:15:32;;;;;;;1.23;0.10;;;4.20;99.90;;;;;;5019873;28;20029;-79
2021/12/02 12:17:59;;;;;;;0.73;0.10;;;4.10;99.90;;;;;;5016224;28;20030;-77
2021/12/02 12:20:54;;;;;;;0.82;0.10;;;4.00;99.90;;;;;;5016181;28;20101;-77
2021/12/02 12:23:54;;;;;;;1.58;0.20;;;3.90;99.90;;;;;;5025163;28;20388;-79
2021/12/02 12:26:30;;;;;;;1.45;0.15;;;3.90;99.90;;;;;;5004351;28;20084;-79
2021/12/02 12:29:08;;;;;;;0.30;0.10;;;3.80;99.90;;;;;;5013666;28;20109;-79
2021/12/02 12:31:41;;;;;;;0.75;0.10;;;3.80;99.90;;;;;;5013109;28;20076;-79
2021/12/02 12:34:42;;;;;;;0.60;0.10;;;3.90;99.90;;;;;;5019101;28;20120;-79
2021/12/02 12:37:22;;;;;;;0.82;0.17;;;3.90;99.90;;;;;;5032154;28;20037;-79
2021/12/02 12:40:12;;;;;;;0.35;0.10;;;3.90;99.90;;;;;;5052411;28;20377;-80
2021/12/02 12:43:11;;;;;;;2.25;0.20;;;3.90;99.90;;;;;;5045151;28;20026;-79
2021/12/02 12:45:43;;;;;;;1.27;0.20;;;4.00;99.90;;;;;;5030417;28;20065;-79
2021/12/02 12:48:29;;;;;;;0.45;0.10;;;3.90;99.90;;;;;;5013563;28;20435;-79
2021/12/02 12:51:18;;;;;;;0.60;0.20;;;4.00;99.90;;;;;;5020760;28;20029;-79
2021/12/02 12:53:45;;;;;;;0.50;0.13;;;4.00;99.90;;;;;;5023120;28;20077;-79
2021/12/02 12:56:13;;;;;;;1.25;0.20;;;4.00;99.90;;;;;;5016480;28;20026;-79
2021/12/02 12:59:01;;;;;;;0.40;0.17;;;4.00;99.90;;;;;;5018508;28;20032;-79
2021/12/02 13:01:28;;;;;;;1.73;0.20;;;4.00;99.90;;;;;;5017237;28;20026;-79
2021/12/02 13:04:10;;;;;;;1.10;0.20;;;4.00;99.90;;;;;;5017107;28;20025;-79
2021/12/02 13:06:53;;;;;;;0.95;0.20;;;4.00;99.90;;;;;;5016593;28;20032;-80
2021/12/02 13:09:43;;;;;;;0.55;0.20;;;4.00;99.90;;;;;;5015265;28;20121;-79
2021/12/02 13:12:12;;;;;;;0.70;0.30;;;4.00;99.90;;;;;;5035337;28;20372;-79
2021/12/02 13:14:40;;;;;;;0.90;0.30;;;4.00;99.90;;;;;;5017217;28;20021;-79
2021/12/02 13:17:38;;;;;;;1.55;0.40;;;4.10;99.90;;;;;;5017704;28;20542;-79
2021/12/02 13:20:38;;;;;;;0.88;0.30;;;4.10;99.90;;;;;;5036447;28;20033;-79
2021/12/02 13:23:16;;;;;;;1.77;0.38;;;4.20;99.90;;;;;;5031236;28;20479;-79
2021/12/02 13:25:47;;;;;;;1.65;0.40;;;4.20;99.90;;;;;;5036601;28;20489;-78
2021/12/02 13:28:28;;;;;;;1.40;0.50;;;4.20;99.90;;;;;;5055542;28;20028;-79
2021/12/02 13:31:08;;;;;;;1.48;0.40;;;4.30;99.90;;;;;;5017617;28;20033;-79
2021/12/02 13:33:45;;;;;;;3.08;0.70;;;4.30;99.90;;;;;;5022126;28;20116;-79